Time;durP1;ratioP1;P1;durP2;ratioP2;P2;SDS_P1;SDS_P2;PMS_P1;PMS_P2;Temp;Humidity;BMP_temperature;BMP_pressure;BME280_temperature;BME280_humidity;BME280_pressure;Samples;Min_cycle;Max_cycle;Signal;HPM_P1;HPM_P2
2021/03/24 00:00:19;;;;;;;40.60;25.10;;;5.90;59.90;;;;;;5033856;28;20439;-77
2021/03/24 00:02:46;;;;;;;40.17;25.47;;;5.90;59.90;;;;;;5027476;28;20472;-78
2021/03/24 00:05:15;;;;;;;37.60;24.53;;;5.90;60.00;;;;;;5044671;28;20505;-78
2021/03/24 00:07:42;;;;;;;36.23;24.33;;;5.90;59.90;;;;;;5051194;28;20490;-78
2021/03/24 00:10:10;;;;;;;39.77;25.77;;;5.90;60.00;;;;;;5045652;28;20984;-78
2021/03/24 00:12:37;;;;;;;41.10;25.13;;;5.90;60.40;;;;;;5041801;28;20997;-78
2021/03/24 00:15:04;;;;;;;37.27;25.27;;;5.80;60.10;;;;;;5042051;28;20550;-79
2021/03/24 00:17:31;;;;;;;39.30;26.30;;;5.90;60.30;;;;;;5041014;28;20535;-78
2021/03/24 00:20:07;;;;;;;38.17;25.70;;;5.80;60.20;;;;;;5043422;28;20580;-78
2021/03/24 00:22:33;;;;;;;36.40;24.63;;;5.80;60.30;;;;;;5036735;28;21022;-78
2021/03/24 00:25:00;;;;;;;41.10;26.17;;;5.80;60.30;;;;;;5030259;28;20455;-78
2021/03/24 00:27:26;;;;;;;35.30;24.77;;;5.80;60.30;;;;;;5044036;28;20538;-77
2021/03/24 00:29:52;;;;;;;36.47;24.10;;;5.80;60.50;;;;;;5051109;28;21029;-77
2021/03/24 00:32:19;;;;;;;38.60;25.10;;;5.80;59.90;;;;;;5047070;28;20462;-77
2021/03/24 00:34:46;;;;;;;41.10;25.13;;;5.70;60.10;;;;;;5034279;28;21001;-78
2021/03/24 00:37:13;;;;;;;40.03;24.80;;;5.70;60.30;;;;;;5045995;28;20467;-79
2021/03/24 00:39:39;;;;;;;44.00;25.60;;;5.70;60.50;;;;;;5041155;28;20848;-79
2021/03/24 00:42:06;;;;;;;40.13;22.80;;;5.70;60.50;;;;;;5041208;28;20447;-79
2021/03/24 00:44:33;;;;;;;36.90;24.40;;;5.70;60.40;;;;;;5038047;28;20530;-79
2021/03/24 00:46:59;;;;;;;41.63;24.63;;;5.60;60.50;;;;;;5039466;28;20462;-78
2021/03/24 00:49:26;;;;;;;39.70;25.00;;;5.60;60.10;;;;;;5042894;28;20523;-77
2021/03/24 00:51:53;;;;;;;36.90;24.37;;;5.60;60.50;;;;;;5041348;28;20447;-77
2021/03/24 00:54:20;;;;;;;40.27;24.07;;;5.60;60.50;;;;;;5026793;28;20487;-78
2021/03/24 00:56:47;;;;;;;37.20;23.87;;;5.60;60.20;;;;;;5026665;28;20556;-78
2021/03/24 00:59:13;;;;;;;38.23;24.00;;;5.60;60.50;;;;;;5032804;28;20498;-78
2021/03/24 01:01:40;;;;;;;36.40;22.83;;;5.60;60.70;;;;;;5037480;28;20998;-78
2021/03/24 01:04:07;;;;;;;37.30;23.70;;;5.60;60.60;;;;;;5032333;28;20477;-78
2021/03/24 01:06:34;;;;;;;37.93;24.73;;;5.60;60.40;;;;;;5037985;28;20487;-78
2021/03/24 01:09:01;;;;;;;41.47;24.73;;;5.60;60.20;;;;;;5033217;28;20454;-77
2021/03/24 01:11:27;;;;;;;35.97;22.33;;;5.60;60.30;;;;;;5032741;28;20444;-79
2021/03/24 01:13:54;;;;;;;37.70;21.20;;;5.60;59.60;;;;;;5037641;28;20969;-80
2021/03/24 01:16:20;;;;;;;31.50;21.80;;;5.60;59.70;;;;;;5033782;28;20517;-79
2021/03/24 01:18:46;;;;;;;33.83;22.00;;;5.70;59.70;;;;;;5050546;28;20482;-79
2021/03/24 01:21:13;;;;;;;34.33;21.70;;;5.60;59.60;;;;;;5053783;28;20469;-80
2021/03/24 01:23:39;;;;;;;31.80;21.80;;;5.50;59.70;;;;;;5043508;28;20495;-79
2021/03/24 01:26:06;;;;;;;33.00;20.90;;;5.50;59.60;;;;;;5040543;28;20450;-79
2021/03/24 01:28:33;;;;;;;33.70;21.67;;;5.60;59.90;;;;;;5042889;28;20484;-80
2021/03/24 01:31:01;;;;;;;33.60;19.77;;;5.50;60.00;;;;;;5035848;28;20455;-79
2021/03/24 01:33:28;;;;;;;31.33;19.73;;;5.60;59.40;;;;;;5039333;28;20459;-79
2021/03/24 01:35:55;;;;;;;29.63;20.23;;;5.60;59.60;;;;;;5033856;28;20487;-78
2021/03/24 01:38:21;;;;;;;31.43;20.03;;;5.70;59.40;;;;;;5031017;28;20516;-79
2021/03/24 01:40:50;;;;;;;31.00;20.30;;;5.70;59.60;;;;;;5060547;28;20435;-80
2021/03/24 01:43:21;;;;;;;31.17;20.43;;;5.70;59.90;;;;;;5036016;28;20503;-79
2021/03/24 01:46:23;;;;;;;28.73;21.07;;;5.60;59.90;;;;;;5042390;28;20465;-79
2021/03/24 01:48:53;;;;;;;32.20;21.20;;;5.60;60.00;;;;;;5051981;28;20455;-80
2021/03/24 01:51:21;;;;;;;29.77;18.90;;;5.70;59.70;;;;;;5052496;28;20446;-79
2021/03/24 01:53:50;;;;;;;29.63;18.97;;;5.70;59.30;;;;;;5041848;28;20479;-80
2021/03/24 01:56:17;;;;;;;30.57;20.00;;;5.80;60.00;;;;;;5049179;28;20800;-80
2021/03/24 01:58:45;;;;;;;35.83;20.63;;;5.60;59.90;;;;;;5049364;28;20458;-80
2021/03/24 02:01:14;;;;;;;34.80;21.40;;;5.50;59.50;;;;;;5032547;28;20511;-79
2021/03/24 02:03:41;;;;;;;31.60;19.00;;;5.60;59.90;;;;;;5036837;28;20499;-79
2021/03/24 02:06:13;;;;;;;35.10;19.90;;;5.60;59.80;;;;;;5039848;28;20453;-79
2021/03/24 02:08:43;;;;;;;31.73;19.10;;;5.70;60.10;;;;;;5039424;28;20554;-79
2021/03/24 02:11:15;;;;;;;28.10;19.37;;;5.70;59.80;;;;;;5040893;28;20781;-80
2021/03/24 02:13:47;;;;;;;28.83;19.00;;;5.60;59.60;;;;;;5043928;28;20498;-79
2021/03/24 02:16:18;;;;;;;23.77;16.63;;;5.70;59.10;;;;;;5047865;28;20479;-78
2021/03/24 02:18:46;;;;;;;29.83;17.70;;;5.60;59.10;;;;;;5045052;28;20550;-79
2021/03/24 02:21:18;;;;;;;28.23;16.53;;;5.60;59.10;;;;;;5041619;28;20459;-79
2021/03/24 02:23:54;;;;;;;28.90;18.70;;;5.70;59.30;;;;;;5041211;28;20510;-79
2021/03/24 02:26:27;;;;;;;22.47;15.40;;;5.70;59.40;;;;;;5041591;28;20457;-78
2021/03/24 02:28:57;;;;;;;33.30;18.03;;;5.80;58.80;;;;;;5043377;28;20483;-79
2021/03/24 02:31:25;;;;;;;30.87;19.43;;;5.70;59.00;;;;;;5055176;28;20485;-79
2021/03/24 02:33:56;;;;;;;29.00;19.87;;;5.60;59.30;;;;;;5055669;28;20473;-79
2021/03/24 02:36:25;;;;;;;27.50;17.73;;;5.60;59.40;;;;;;5057174;28;20433;-79
2021/03/24 02:38:55;;;;;;;29.60;20.00;;;5.60;59.40;;;;;;5058617;28;20460;-79
2021/03/24 02:41:22;;;;;;;31.90;19.17;;;5.60;59.70;;;;;;5048233;28;20450;-79
2021/03/24 02:43:49;;;;;;;29.67;18.60;;;5.50;59.70;;;;;;5047652;28;20487;-79
2021/03/24 02:46:17;;;;;;;30.63;18.33;;;5.50;59.80;;;;;;5030811;28;21084;-79
2021/03/24 02:48:44;;;;;;;27.50;18.30;;;5.60;59.90;;;;;;5044254;28;20460;-79
2021/03/24 02:51:15;;;;;;;30.87;19.80;;;5.60;59.90;;;;;;5044988;28;20456;-79
2021/03/24 02:53:42;;;;;;;28.70;18.53;;;5.60;60.10;;;;;;5036007;28;20459;-80
2021/03/24 02:56:10;;;;;;;26.67;17.97;;;5.60;59.20;;;;;;5034781;28;20485;-80
2021/03/24 02:58:38;;;;;;;26.97;18.30;;;5.60;59.50;;;;;;5042545;28;20477;-79
2021/03/24 03:01:11;;;;;;;31.03;19.17;;;5.60;59.70;;;;;;5042800;28;20509;-78
2021/03/24 03:03:40;;;;;;;28.73;18.80;;;5.60;59.50;;;;;;5047997;28;20576;-79
2021/03/24 03:06:11;;;;;;;25.80;17.60;;;5.60;59.70;;;;;;5037422;28;20962;-79
2021/03/24 03:08:41;;;;;;;28.43;16.47;;;5.60;59.20;;;;;;5045359;28;20447;-78
2021/03/24 03:11:14;;;;;;;29.50;17.43;;;5.60;58.70;;;;;;5045158;28;20558;-78
2021/03/24 03:13:47;;;;;;;33.40;19.87;;;5.50;59.40;;;;;;5052393;28;20530;-79
2021/03/24 03:16:20;;;;;;;28.13;19.53;;;5.50;59.30;;;;;;5043909;28;20530;-78
2021/03/24 03:18:53;;;;;;;29.07;18.50;;;5.60;59.40;;;;;;5040338;28;20444;-78
2021/03/24 03:21:35;;;;;;;40.30;18.97;;;5.50;59.50;;;;;;5037755;28;21057;-78
2021/03/24 03:24:04;;;;;;;34.43;20.67;;;5.60;59.80;;;;;;5037125;28;20573;-79
2021/03/24 03:26:32;;;;;;;29.47;18.90;;;5.50;59.70;;;;;;5028720;28;20448;-79
2021/03/24 03:29:10;;;;;;;29.97;19.47;;;5.50;59.70;;;;;;5035277;28;20885;-79
2021/03/24 03:31:40;;;;;;;30.20;18.43;;;5.50;59.30;;;;;;5043156;28;20479;-79
2021/03/24 03:34:11;;;;;;;29.27;20.10;;;5.60;59.90;;;;;;5049058;28;20492;-79
2021/03/24 03:36:40;;;;;;;30.67;20.40;;;5.60;59.70;;;;;;5050665;28;20528;-79
2021/03/24 03:39:12;;;;;;;28.50;19.43;;;5.60;59.20;;;;;;5059778;28;20460;-79
2021/03/24 03:41:40;;;;;;;27.97;18.70;;;5.60;58.80;;;;;;5048722;28;20459;-80
2021/03/24 03:44:08;;;;;;;29.90;19.00;;;5.60;58.60;;;;;;5037312;28;20471;-80
2021/03/24 03:46:39;;;;;;;30.80;20.73;;;5.60;58.60;;;;;;5034464;28;20455;-80
2021/03/24 03:49:05;;;;;;;30.33;19.73;;;5.60;58.90;;;;;;5047631;28;20456;-79
2021/03/24 03:51:40;;;;;;;30.33;18.30;;;5.70;59.40;;;;;;5035667;28;20461;-80
2021/03/24 03:54:13;;;;;;;30.67;20.90;;;5.60;58.90;;;;;;5037890;28;20491;-79
2021/03/24 03:56:48;;;;;;;30.27;19.57;;;5.50;59.00;;;;;;5035143;28;20811;-79
2021/03/24 03:59:21;;;;;;;33.00;20.57;;;5.60;59.40;;;;;;5033367;28;20448;-79
2021/03/24 04:01:53;;;;;;;31.23;21.10;;;5.50;59.40;;;;;;5040875;28;20518;-80
2021/03/24 04:04:33;;;;;;;28.90;20.90;;;5.50;59.60;;;;;;5038755;28;20498;-77
2021/03/24 04:07:06;;;;;;;29.40;19.83;;;5.50;59.70;;;;;;5038475;28;20451;-78
2021/03/24 04:09:35;;;;;;;28.70;19.10;;;5.50;59.80;;;;;;5035494;28;20482;-79
2021/03/24 04:12:06;;;;;;;30.13;20.03;;;5.50;59.90;;;;;;5045178;28;20454;-78
2021/03/24 04:14:32;;;;;;;31.17;19.70;;;5.50;60.00;;;;;;5037812;28;20479;-79
2021/03/24 04:17:00;;;;;;;32.20;20.60;;;5.40;60.00;;;;;;5038670;28;20459;-77
2021/03/24 04:19:32;;;;;;;31.43;19.47;;;5.30;59.90;;;;;;5034180;28;20490;-79
2021/03/24 04:22:01;;;;;;;32.37;20.67;;;5.30;60.00;;;;;;5033219;28;20469;-78
2021/03/24 04:24:31;;;;;;;32.23;20.50;;;5.40;59.70;;;;;;5032940;28;20512;-79
2021/03/24 04:27:00;;;;;;;36.63;21.20;;;5.40;59.90;;;;;;5049110;28;20481;-79
2021/03/24 04:29:30;;;;;;;37.77;21.67;;;5.40;60.30;;;;;;5040243;28;20452;-79
2021/03/24 04:32:00;;;;;;;30.80;21.17;;;5.40;60.40;;;;;;5044989;28;20456;-78
2021/03/24 04:34:28;;;;;;;32.60;21.57;;;5.40;59.80;;;;;;5034326;28;20448;-79
2021/03/24 04:37:00;;;;;;;54.23;23.30;;;5.40;59.80;;;;;;5034090;28;20434;-79
2021/03/24 04:39:33;;;;;;;36.30;22.50;;;5.50;60.10;;;;;;5041906;28;20519;-78
2021/03/24 04:42:01;;;;;;;32.17;21.47;;;5.50;59.70;;;;;;5035049;28;20448;-78
2021/03/24 04:44:30;;;;;;;36.67;21.73;;;5.50;59.50;;;;;;5040443;28;20500;-79
2021/03/24 04:47:04;;;;;;;33.10;22.37;;;5.60;59.60;;;;;;5036217;28;21051;-79
2021/03/24 04:49:34;;;;;;;35.53;22.80;;;5.60;59.20;;;;;;5054123;28;20451;-78
2021/03/24 04:52:04;;;;;;;33.20;20.60;;;5.60;59.70;;;;;;5053258;28;20494;-78
2021/03/24 04:54:34;;;;;;;34.20;21.90;;;5.60;59.70;;;;;;5038390;28;20509;-79
2021/03/24 04:57:04;;;;;;;51.70;23.67;;;5.50;59.40;;;;;;5039812;28;20447;-79
2021/03/24 04:59:35;;;;;;;37.83;22.87;;;5.50;60.10;;;;;;5042825;28;20483;-79
2021/03/24 05:02:06;;;;;;;30.13;20.10;;;5.40;60.40;;;;;;5035920;28;20459;-78
2021/03/24 05:04:37;;;;;;;33.63;22.57;;;5.50;60.40;;;;;;5036615;28;20481;-79
2021/03/24 05:07:10;;;;;;;34.10;22.37;;;5.50;60.60;;;;;;5039152;28;20451;-79
2021/03/24 05:09:37;;;;;;;31.40;21.47;;;5.40;60.60;;;;;;5044132;28;20447;-79
2021/03/24 05:12:09;;;;;;;36.27;23.23;;;5.40;60.60;;;;;;5026914;28;20455;-78
2021/03/24 05:14:40;;;;;;;37.60;22.30;;;5.40;61.00;;;;;;5038934;28;20470;-77
2021/03/24 05:17:16;;;;;;;42.87;22.40;;;5.50;61.10;;;;;;5034267;28;21033;-79
2021/03/24 05:19:45;;;;;;;55.30;24.97;;;5.50;61.10;;;;;;5035598;28;20459;-78
2021/03/24 05:22:21;;;;;;;41.63;22.57;;;5.40;61.20;;;;;;5037236;28;20484;-78
2021/03/24 05:24:50;;;;;;;44.00;23.50;;;5.40;61.00;;;;;;5034658;28;20529;-79
2021/03/24 05:27:24;;;;;;;40.77;24.03;;;5.30;61.00;;;;;;5036968;28;20951;-78
2021/03/24 05:29:53;;;;;;;41.57;24.17;;;5.40;61.40;;;;;;5037929;28;20443;-79
2021/03/24 05:32:23;;;;;;;38.20;23.57;;;5.40;61.50;;;;;;5036443;28;20457;-78
2021/03/24 05:34:53;;;;;;;41.00;23.73;;;5.50;60.60;;;;;;5037219;28;20469;-78
2021/03/24 05:37:24;;;;;;;49.73;22.50;;;5.60;60.90;;;;;;5038872;28;20443;-79
2021/03/24 05:39:51;;;;;;;28.20;19.23;;;5.60;60.80;;;;;;5044818;28;20525;-78
2021/03/24 05:42:29;;;;;;;29.70;18.30;;;5.70;59.50;;;;;;5040074;28;20458;-79
2021/03/24 05:45:07;;;;;;;29.63;19.33;;;5.70;59.20;;;;;;5040132;28;20509;-79
2021/03/24 05:47:50;;;;;;;28.40;17.80;;;5.70;58.30;;;;;;5038344;28;21022;-80
2021/03/24 05:50:29;;;;;;;30.97;17.70;;;5.70;58.20;;;;;;5042632;28;20486;-78
2021/03/24 05:53:05;;;;;;;25.00;17.27;;;5.70;58.40;;;;;;5041924;28;20511;-79
2021/03/24 05:55:39;;;;;;;24.97;17.60;;;5.80;58.50;;;;;;5048308;28;20455;-79
2021/03/24 05:58:17;;;;;;;32.27;18.20;;;5.90;58.40;;;;;;5041804;28;20451;-78
2021/03/24 06:00:48;;;;;;;39.67;22.17;;;6.00;58.10;;;;;;5041392;28;20463;-79
2021/03/24 06:03:28;;;;;;;29.77;18.80;;;6.10;58.60;;;;;;5040653;28;20524;-79
2021/03/24 06:06:17;;;;;;;31.87;20.47;;;6.20;58.70;;;;;;5035115;28;20489;-78
2021/03/24 06:09:17;;;;;;;31.43;21.30;;;6.20;58.30;;;;;;5039557;28;20453;-79
2021/03/24 06:12:27;;;;;;;32.67;20.13;;;6.30;58.30;;;;;;5035793;28;20467;-78
2021/03/24 06:15:21;;;;;;;48.87;22.33;;;6.40;57.80;;;;;;5030525;28;20455;-78
2021/03/24 06:18:27;;;;;;;32.73;21.10;;;6.50;58.00;;;;;;5030555;28;20445;-78
2021/03/24 06:20:59;;;;;;;30.97;19.53;;;6.60;57.80;;;;;;5035479;28;20970;-78
2021/03/24 06:23:37;;;;;;;35.40;22.43;;;6.70;57.10;;;;;;5031127;28;20480;-78
2021/03/24 06:26:15;;;;;;;33.97;21.27;;;6.70;57.60;;;;;;5038556;28;20448;-79
2021/03/24 06:28:49;;;;;;;33.20;23.30;;;6.80;57.30;;;;;;5056207;28;20468;-77
2021/03/24 06:31:51;;;;;;;30.60;19.80;;;6.80;56.90;;;;;;5035439;28;20524;-78
2021/03/24 06:34:50;;;;;;;43.43;21.73;;;6.70;56.70;;;;;;5027206;28;20513;-80
2021/03/24 06:37:47;;;;;;;31.00;19.87;;;6.70;56.70;;;;;;5031877;28;21006;-79
2021/03/24 06:40:52;;;;;;;49.47;22.73;;;6.70;56.90;;;;;;5031177;28;20461;-79
2021/03/24 06:43:32;;;;;;;37.93;21.97;;;6.60;56.90;;;;;;5042178;28;20808;-80
2021/03/24 06:46:14;;;;;;;32.13;20.97;;;6.70;57.20;;;;;;5044811;28;20481;-80
2021/03/24 06:48:53;;;;;;;33.30;21.80;;;6.70;57.00;;;;;;5057347;28;20474;-78
2021/03/24 06:52:14;;;;;;;33.10;21.20;;;6.70;57.20;;;;;;5039626;28;20448;-75
2021/03/24 06:55:03;;;;;;;55.45;26.85;;;6.60;57.30;;;;;;4988479;28;20483;-76
2021/03/24 06:58:05;;;;;;;45.30;22.77;;;6.60;57.40;;;;;;4992041;28;20210;-74
2021/03/24 07:00:45;;;;;;;31.70;21.10;;;6.90;58.70;;;;;;5022351;28;20524;-75
2021/03/24 07:03:37;;;;;;;33.87;21.70;;;7.00;59.20;;;;;;5038911;28;20473;-74
2021/03/24 07:06:32;;;;;;;39.13;24.13;;;7.00;57.90;;;;;;4996074;28;20488;-75
2021/03/24 07:09:10;;;;;;;35.53;22.73;;;7.00;57.60;;;;;;5022034;28;20462;-74
2021/03/24 07:11:50;;;;;;;46.33;24.83;;;7.00;57.70;;;;;;5030797;28;20456;-75
2021/03/24 07:14:36;;;;;;;56.00;23.20;;;7.00;57.30;;;;;;5030403;28;20563;-74
2021/03/24 07:18:03;;;;;;;36.23;21.90;;;7.00;57.10;;;;;;5024630;28;20548;-82
2021/03/24 07:21:07;;;;;;;32.47;20.80;;;7.00;56.90;;;;;;5000805;28;20468;-83
2021/03/24 07:24:02;;;;;;;31.90;21.97;;;7.00;57.00;;;;;;5013877;28;20488;-79
2021/03/24 07:26:44;;;;;;;31.77;21.20;;;7.10;56.80;;;;;;5052824;28;20469;-79
2021/03/24 07:29:21;;;;;;;34.03;19.83;;;7.20;57.40;;;;;;5040424;28;20477;-79
2021/03/24 07:32:08;;;;;;;34.57;22.80;;;7.20;56.90;;;;;;5037149;28;20486;-79
2021/03/24 07:35:01;;;;;;;38.10;21.33;;;7.10;56.40;;;;;;5040456;28;20460;-80
2021/03/24 07:37:55;;;;;;;31.73;20.63;;;7.30;56.40;;;;;;5039199;28;20517;-80
2021/03/24 07:41:00;;;;;;;31.30;19.47;;;7.30;55.90;;;;;;5034183;28;20959;-84
2021/03/24 07:43:54;;;;;;;31.57;20.50;;;7.70;57.60;;;;;;5041973;28;20472;-79
2021/03/24 07:46:38;;;;;;;36.60;22.00;;;7.70;56.70;;;;;;5023642;28;20476;-78
2021/03/24 07:49:22;;;;;;;31.77;20.20;;;7.70;55.90;;;;;;5035356;28;20479;-80
2021/03/24 07:52:21;;;;;;;36.00;19.30;;;7.60;55.90;;;;;;5044046;28;20471;-80
2021/03/24 07:54:56;;;;;;;46.97;21.50;;;7.50;55.80;;;;;;5041306;28;20491;-81
2021/03/24 07:57:33;;;;;;;42.87;21.40;;;7.60;56.10;;;;;;5049087;28;20460;-80
2021/03/24 08:00:11;;;;;;;33.10;20.83;;;7.70;55.90;;;;;;5048284;28;20453;-81
2021/03/24 08:02:56;;;;;;;28.27;18.90;;;7.50;55.40;;;;;;5042744;28;20811;-79
2021/03/24 08:05:51;;;;;;;28.70;19.27;;;7.70;56.20;;;;;;5047108;28;20466;-81
2021/03/24 08:08:26;;;;;;;28.63;19.10;;;7.90;55.80;;;;;;5040224;28;20458;-79
2021/03/24 08:11:02;;;;;;;31.40;20.83;;;8.00;56.10;;;;;;5033547;28;20522;-80
2021/03/24 08:13:43;;;;;;;29.83;19.57;;;8.10;55.70;;;;;;5038895;28;20469;-80
2021/03/24 08:16:34;;;;;;;23.53;17.17;;;8.10;55.60;;;;;;5043178;28;20452;-79
2021/03/24 08:19:20;;;;;;;31.27;20.90;;;8.20;55.50;;;;;;5039144;28;20446;-79
2021/03/24 08:21:57;;;;;;;32.83;20.67;;;8.30;55.50;;;;;;5057766;28;21192;-79
2021/03/24 08:24:38;;;;;;;27.13;19.13;;;8.30;55.20;;;;;;5037879;28;20534;-80
2021/03/24 08:27:11;;;;;;;29.60;20.00;;;8.20;54.90;;;;;;5045636;28;20431;-80
2021/03/24 08:29:52;;;;;;;34.00;20.00;;;8.50;55.20;;;;;;5047617;28;20496;-80
2021/03/24 08:32:56;;;;;;;33.70;20.53;;;8.30;55.00;;;;;;5042246;28;20659;-80
2021/03/24 08:35:51;;;;;;;37.60;20.37;;;8.40;55.30;;;;;;5033810;28;20455;-80
2021/03/24 08:38:46;;;;;;;30.37;19.27;;;8.60;55.30;;;;;;5043093;28;20462;-81
2021/03/24 08:41:40;;;;;;;48.83;21.30;;;8.60;55.70;;;;;;5049004;28;20441;-80
2021/03/24 08:44:15;;;;;;;28.43;18.63;;;8.30;54.80;;;;;;5036992;28;20489;-80
2021/03/24 08:46:46;;;;;;;31.53;20.80;;;8.30;54.90;;;;;;5038746;28;20452;-79
2021/03/24 08:49:18;;;;;;;24.93;17.60;;;8.40;54.90;;;;;;5038066;28;20451;-79
2021/03/24 08:52:00;;;;;;;32.30;19.73;;;8.50;54.90;;;;;;5039906;28;20966;-79
2021/03/24 08:54:44;;;;;;;28.03;18.97;;;8.60;54.70;;;;;;5032764;28;20486;-80
2021/03/24 08:57:23;;;;;;;25.10;18.57;;;8.80;54.40;;;;;;5056962;28;20457;-81
2021/03/24 08:59:54;;;;;;;31.90;19.20;;;8.50;54.50;;;;;;5039018;28;21032;-78
2021/03/24 09:02:38;;;;;;;30.23;20.33;;;8.70;54.70;;;;;;5047137;28;20490;-79
2021/03/24 09:05:18;;;;;;;28.37;18.40;;;9.10;56.00;;;;;;5030358;28;20474;-80
2021/03/24 09:08:16;;;;;;;27.13;20.20;;;9.10;54.70;;;;;;5026326;28;20872;-80
2021/03/24 09:10:49;;;;;;;38.33;19.33;;;9.30;54.20;;;;;;5037215;28;21364;-74
2021/03/24 09:13:24;;;;;;;29.03;19.10;;;9.40;57.00;;;;;;5033180;28;20448;-86
2021/03/24 09:16:32;;;;;;;31.77;22.77;;;9.70;54.20;;;;;;5035589;28;20439;-88
2021/03/24 09:19:17;;;;;;;33.23;20.40;;;9.50;53.40;;;;;;5038274;28;20196;-86
2021/03/24 09:22:00;;;;;;;28.83;18.90;;;9.50;53.80;;;;;;5044024;28;20874;-87
2021/03/24 09:24:42;;;;;;;31.13;19.20;;;9.60;53.50;;;;;;5052796;28;20470;-86
2021/03/24 09:27:40;;;;;;;28.37;19.20;;;9.70;53.30;;;;;;5056228;28;20461;-85
2021/03/24 09:30:49;;;;;;;29.57;18.23;;;9.50;53.00;;;;;;5050219;28;20477;-85
2021/03/24 09:33:47;;;;;;;27.25;21.80;;;9.50;53.60;;;;;;5048517;28;20455;-82
2021/03/24 09:36:41;;;;;;;35.73;20.50;;;9.50;53.50;;;;;;5040774;28;20214;-87
2021/03/24 09:39:17;;;;;;;25.70;19.00;;;9.60;53.00;;;;;;5047546;28;20485;-85
2021/03/24 09:41:49;;;;;;;56.55;23.77;;;9.60;52.80;;;;;;5067675;28;20467;-87
2021/03/24 09:44:26;;;;;;;48.53;21.43;;;9.90;52.80;;;;;;5056630;28;20246;-87
2021/03/24 09:46:55;;;;;;;48.40;21.20;;;9.90;52.40;;;;;;5051772;28;20808;-87
2021/03/24 09:49:30;;;;;;;30.80;20.20;;;9.70;52.10;;;;;;5039382;28;20479;-87
2021/03/24 09:52:24;;;;;;;24.47;17.93;;;10.00;51.20;;;;;;5045653;28;20454;-86
2021/03/24 09:55:06;;;;;;;27.42;22.48;;;9.80;51.90;;;;;;5036988;28;20852;-77
2021/03/24 09:58:05;;;;;;;32.33;20.37;;;10.00;51.40;;;;;;5033119;28;20218;-77
2021/03/24 10:00:36;;;;;;;34.90;18.37;;;10.10;51.10;;;;;;5023519;28;20491;-77
2021/03/24 10:03:12;;;;;;;31.80;20.57;;;10.20;50.80;;;;;;5032957;28;20462;-77
2021/03/24 10:05:46;;;;;;;27.07;18.97;;;10.40;50.90;;;;;;5039760;28;20458;-80
2021/03/24 10:08:19;;;;;;;29.30;21.30;;;10.60;51.10;;;;;;5037796;28;20443;-83
2021/03/24 10:10:49;;;;;;;26.88;19.83;;;10.60;50.80;;;;;;5057130;28;20455;-82
2021/03/24 10:13:30;;;;;;;26.73;20.03;;;10.40;51.20;;;;;;5057962;28;20210;-84
2021/03/24 10:16:10;;;;;;;25.13;18.30;;;10.50;50.40;;;;;;5048409;28;20500;-85
2021/03/24 10:18:42;;;;;;;26.30;18.20;;;10.00;50.00;;;;;;5053347;28;20449;-84
2021/03/24 10:21:22;;;;;;;144.30;30.80;;;10.20;50.70;;;;;;5057759;28;20451;-84
2021/03/24 10:23:54;;;;;;;25.42;17.75;;;10.60;50.50;;;;;;5066864;28;20527;-84
2021/03/24 10:26:24;;;;;;;29.10;17.30;;;10.60;50.30;;;;;;5057696;28;20207;-82
2021/03/24 10:28:55;;;;;;;25.77;17.53;;;10.80;50.30;;;;;;5054049;28;20461;-83
2021/03/24 10:31:25;;;;;;;27.20;18.20;;;10.80;50.10;;;;;;5049869;28;20450;-83
2021/03/24 10:33:57;;;;;;;32.10;19.63;;;10.80;49.90;;;;;;5050862;28;20577;-83
2021/03/24 10:36:32;;;;;;;23.77;16.57;;;10.40;49.80;;;;;;5056263;28;20465;-83
2021/03/24 10:39:08;;;;;;;23.17;17.63;;;10.40;50.00;;;;;;5046730;28;20445;-84
2021/03/24 10:41:48;;;;;;;72.35;21.98;;;10.60;50.10;;;;;;5044736;28;20484;-80
2021/03/24 10:44:25;;;;;;;29.50;19.00;;;10.70;50.20;;;;;;5047993;28;20293;-81
2021/03/24 10:47:10;;;;;;;26.87;18.83;;;10.90;50.10;;;;;;5040755;28;20876;-83
2021/03/24 10:49:43;;;;;;;40.20;18.13;;;11.00;50.00;;;;;;5043735;28;20467;-80
2021/03/24 10:52:18;;;;;;;29.50;19.43;;;11.10;49.70;;;;;;5041488;28;20462;-81
2021/03/24 10:54:46;;;;;;;24.70;18.30;;;11.10;49.50;;;;;;5043110;28;20450;-81
2021/03/24 10:57:28;;;;;;;24.60;17.60;;;10.90;49.20;;;;;;5051298;28;20450;-82
2021/03/24 11:00:07;;;;;;;24.10;17.07;;;10.90;49.10;;;;;;5043051;28;20473;-82
2021/03/24 11:02:39;;;;;;;25.03;17.53;;;10.80;49.20;;;;;;5045461;28;20470;-82
2021/03/24 11:05:10;;;;;;;36.63;18.97;;;10.90;49.00;;;;;;5048505;28;20477;-83
2021/03/24 11:07:44;;;;;;;22.83;17.20;;;11.20;49.20;;;;;;5064188;28;20466;-83
2021/03/24 11:10:48;;;;;;;24.40;19.30;;;11.60;48.90;;;;;;5053890;28;20435;-83
2021/03/24 11:13:25;;;;;;;25.20;18.70;;;11.50;48.60;;;;;;5049828;28;20450;-81
2021/03/24 11:16:06;;;;;;;25.10;18.00;;;10.80;48.70;;;;;;5053704;28;20458;-82
2021/03/24 11:18:40;;;;;;;24.53;17.07;;;10.70;49.10;;;;;;5057037;28;20477;-83
2021/03/24 11:21:20;;;;;;;28.67;18.70;;;10.70;49.80;;;;;;5046808;28;20522;-82
2021/03/24 11:23:52;;;;;;;23.60;18.63;;;11.20;49.00;;;;;;5063444;28;20469;-83
2021/03/24 11:26:49;;;;;;;27.27;19.00;;;11.00;49.20;;;;;;5052313;28;20514;-81
2021/03/24 11:29:21;;;;;;;27.97;18.90;;;11.10;48.90;;;;;;5053350;28;20447;-83
2021/03/24 11:32:05;;;;;;;26.33;18.30;;;11.30;48.90;;;;;;5058522;28;20458;-81
2021/03/24 11:34:41;;;;;;;25.27;21.07;;;11.20;48.80;;;;;;5053900;28;20468;-80
2021/03/24 11:37:41;;;;;;;25.50;19.50;;;11.10;48.90;;;;;;5048487;28;20470;-81
2021/03/24 11:40:20;;;;;;;29.03;18.10;;;11.20;49.10;;;;;;5051766;28;20455;-79
2021/03/24 11:42:55;;;;;;;24.47;18.40;;;11.40;49.00;;;;;;5053547;28;20443;-80
2021/03/24 11:45:23;;;;;;;22.20;17.10;;;11.50;48.80;;;;;;5064819;28;20473;-79
2021/03/24 11:48:23;;;;;;;23.43;16.80;;;11.40;48.40;;;;;;5043995;28;20446;-80
2021/03/24 11:51:04;;;;;;;23.47;17.33;;;11.40;48.00;;;;;;5038841;28;20461;-80
2021/03/24 11:53:50;;;;;;;24.20;18.43;;;11.70;48.30;;;;;;5042695;28;20457;-80
2021/03/24 11:56:24;;;;;;;25.63;17.47;;;11.40;48.30;;;;;;5035555;28;20542;-80
2021/03/24 11:59:01;;;;;;;24.30;18.30;;;11.60;48.60;;;;;;5039212;28;20549;-81
2021/03/24 12:01:53;;;;;;;26.30;19.27;;;11.60;48.60;;;;;;5044240;28;20529;-81
2021/03/24 12:04:35;;;;;;;25.20;18.20;;;11.30;49.10;;;;;;5043091;28;20502;-80
2021/03/24 12:07:15;;;;;;;22.13;16.80;;;11.40;48.70;;;;;;5038535;28;20995;-79
2021/03/24 12:09:42;;;;;;;23.10;17.77;;;11.60;48.30;;;;;;5043885;28;20444;-80
2021/03/24 12:12:19;;;;;;;23.97;16.00;;;12.00;48.50;;;;;;5037997;28;20495;-80
2021/03/24 12:14:58;;;;;;;24.37;18.07;;;12.20;48.00;;;;;;5046554;28;20858;-83
2021/03/24 12:20:19;;;;;;;28.70;17.10;;;11.50;48.10;;;;;;5051779;28;20446;-81
2021/03/24 12:22:54;;;;;;;22.30;16.87;;;11.60;48.70;;;;;;5050899;28;20475;-81
2021/03/24 12:25:24;;;;;;;23.23;17.70;;;12.00;47.90;;;;;;5039865;28;20482;-82
2021/03/24 12:27:55;;;;;;;22.63;17.90;;;11.80;47.60;;;;;;5046116;28;20485;-82
2021/03/24 12:30:30;;;;;;;25.23;16.47;;;12.20;48.20;;;;;;5042022;28;20622;-82
2021/03/24 12:33:08;;;;;;;23.80;16.73;;;12.60;48.70;;;;;;5052381;28;20541;-82
2021/03/24 12:35:36;;;;;;;21.33;16.60;;;13.10;49.40;;;;;;5050879;28;20457;-84
2021/03/24 12:38:11;;;;;;;22.20;16.70;;;12.70;47.30;;;;;;5049667;28;20466;-81
2021/03/24 12:40:53;;;;;;;26.20;16.37;;;12.40;47.60;;;;;;5056300;28;20430;-82
2021/03/24 12:43:26;;;;;;;25.10;16.60;;;12.70;48.20;;;;;;5048294;28;20443;-81
2021/03/24 12:45:53;;;;;;;23.53;16.80;;;13.00;47.90;;;;;;5060999;28;20470;-81
2021/03/24 12:48:27;;;;;;;32.53;18.70;;;13.10;48.00;;;;;;5044119;28;20455;-82
2021/03/24 12:51:00;;;;;;;26.38;18.67;;;13.20;47.30;;;;;;5036360;28;20542;-80
2021/03/24 12:53:37;;;;;;;21.43;16.70;;;13.00;46.70;;;;;;5054263;28;20207;-81
2021/03/24 12:56:30;;;;;;;59.20;18.87;;;12.90;47.30;;;;;;5057230;28;20457;-81
2021/03/24 12:59:01;;;;;;;27.83;16.50;;;13.20;48.40;;;;;;5050550;28;20448;-83
2021/03/24 13:01:39;;;;;;;20.77;15.77;;;13.20;46.80;;;;;;5051288;28;20435;-81
2021/03/24 13:04:40;;;;;;;24.30;16.03;;;13.20;46.60;;;;;;5051175;28;20526;-83
2021/03/24 13:07:39;;;;;;;21.57;15.93;;;13.00;46.70;;;;;;5050464;28;20519;-82
2021/03/24 13:10:39;;;;;;;18.47;15.67;;;13.10;46.40;;;;;;5037923;28;20447;-83
2021/03/24 13:13:13;;;;;;;19.53;15.33;;;12.90;46.50;;;;;;5051917;28;20442;-82
2021/03/24 13:15:49;;;;;;;41.27;19.13;;;12.50;46.40;;;;;;5055275;28;20473;-80
2021/03/24 13:18:23;;;;;;;28.00;15.50;;;12.60;46.80;;;;;;5065562;28;20442;-82
2021/03/24 13:21:20;;;;;;;19.90;15.87;;;13.00;46.70;;;;;;5049217;28;20501;-83
2021/03/24 13:23:59;;;;;;;30.70;17.10;;;12.80;46.90;;;;;;5047036;28;20475;-82